Anco, Kentucky
Current Conditions -  °F | °C
As of 12:53 AM on Monday 24 Nov 2014 (Local Time) from KJKL Reporting Station
Light Rain Light Rain  
Wind Chill: 59°   Ceiling: 2400
Heat Index: 59°   Visibility: 9mi
Dew Point: 53°   Wind: 9mph
Humidity: 81%   Direction: 190°S
Pressure: 29.49"   Gusts: 22mph
Location:  37.2376°N, 83.0326°W
Report Text: KJKL 240553Z AUTO 19008G19KT 150V230 9SM -RA BKN024 BKN029 OVC036 15/12 A2949 RMK AO2 RAB22 SLP977 P0000 60001 T01500117 10167 20133 53012
Loading
Personal Weather Stations






























Interactive Weather Map New forecast layout! Learn more

10-Day Weather Forecast

Advertisements
Track Severe Weather on mobile